sensor_id;sensor_type;location;lat;lon;timestamp;temperature;humidity
21502;DHT22;27639;48.674;9.242;2023-12-14T00:00:19;9.40;66.40
21502;DHT22;27639;48.674;9.242;2023-12-14T00:02:45;9.40;66.40
21502;DHT22;27639;48.674;9.242;2023-12-14T00:05:10;9.40;66.40
21502;DHT22;27639;48.674;9.242;2023-12-14T00:07:36;9.40;66.40
21502;DHT22;27639;48.674;9.242;2023-12-14T00:10:02;9.30;66.30
21502;DHT22;27639;48.674;9.242;2023-12-14T00:12:29;9.30;66.30
21502;DHT22;27639;48.674;9.242;2023-12-14T00:14:54;9.40;66.40
21502;DHT22;27639;48.674;9.242;2023-12-14T00:17:20;9.40;66.40
21502;DHT22;27639;48.674;9.242;2023-12-14T00:19:45;9.50;66.10
21502;DHT22;27639;48.674;9.242;2023-12-14T00:22:11;9.50;66.20
21502;DHT22;27639;48.674;9.242;2023-12-14T00:24:36;9.60;66.10
21502;DHT22;27639;48.674;9.242;2023-12-14T00:27:02;9.60;66.10
21502;DHT22;27639;48.674;9.242;2023-12-14T00:29:28;9.60;66.10
21502;DHT22;27639;48.674;9.242;2023-12-14T00:31:53;9.50;66.10
21502;DHT22;27639;48.674;9.242;2023-12-14T00:34:19;9.50;66.30
21502;DHT22;27639;48.674;9.242;2023-12-14T00:36:44;9.60;66.50
21502;DHT22;27639;48.674;9.242;2023-12-14T00:39:10;9.60;66.60
21502;DHT22;27639;48.674;9.242;2023-12-14T00:41:35;9.60;66.50
21502;DHT22;27639;48.674;9.242;2023-12-14T00:44:01;9.60;66.50
21502;DHT22;27639;48.674;9.242;2023-12-14T00:46:27;9.60;66.30
21502;DHT22;27639;48.674;9.242;2023-12-14T00:48:52;9.60;66.30
21502;DHT22;27639;48.674;9.242;2023-12-14T00:51:18;9.60;66.30
21502;DHT22;27639;48.674;9.242;2023-12-14T00:53:43;9.70;66.30
21502;DHT22;27639;48.674;9.242;2023-12-14T00:56:09;9.70;66.00
21502;DHT22;27639;48.674;9.242;2023-12-14T00:58:34;9.70;65.80
21502;DHT22;27639;48.674;9.242;2023-12-14T01:01:00;9.80;65.90
21502;DHT22;27639;48.674;9.242;2023-12-14T01:03:26;9.80;65.90
21502;DHT22;27639;48.674;9.242;2023-12-14T01:05:51;9.80;65.80
21502;DHT22;27639;48.674;9.242;2023-12-14T01:08:17;9.80;65.80
21502;DHT22;27639;48.674;9.242;2023-12-14T01:10:42;9.80;65.70
21502;DHT22;27639;48.674;9.242;2023-12-14T01:13:08;9.80;65.60
21502;DHT22;27639;48.674;9.242;2023-12-14T01:15:34;9.80;65.60
21502;DHT22;27639;48.674;9.242;2023-12-14T01:17:59;9.80;65.50
21502;DHT22;27639;48.674;9.242;2023-12-14T01:20:25;9.90;65.50
21502;DHT22;27639;48.674;9.242;2023-12-14T01:22:50;9.90;65.30
21502;DHT22;27639;48.674;9.242;2023-12-14T01:25:16;9.90;65.30
21502;DHT22;27639;48.674;9.242;2023-12-14T01:27:42;9.90;65.30
21502;DHT22;27639;48.674;9.242;2023-12-14T01:30:07;9.80;65.30
21502;DHT22;27639;48.674;9.242;2023-12-14T01:32:33;9.80;65.40
21502;DHT22;27639;48.674;9.242;2023-12-14T01:34:59;9.70;65.40
21502;DHT22;27639;48.674;9.242;2023-12-14T01:37:24;9.70;65.60
21502;DHT22;27639;48.674;9.242;2023-12-14T01:39:50;9.70;65.70
21502;DHT22;27639;48.674;9.242;2023-12-14T01:42:15;9.70;65.70
21502;DHT22;27639;48.674;9.242;2023-12-14T01:44:41;9.70;65.70
21502;DHT22;27639;48.674;9.242;2023-12-14T01:47:06;9.70;65.70
21502;DHT22;27639;48.674;9.242;2023-12-14T01:49:32;9.70;65.80
21502;DHT22;27639;48.674;9.242;2023-12-14T01:51:57;9.70;66.00
21502;DHT22;27639;48.674;9.242;2023-12-14T01:54:23;9.70;66.10
21502;DHT22;27639;48.674;9.242;2023-12-14T01:56:48;9.60;66.10
21502;DHT22;27639;48.674;9.242;2023-12-14T01:59:14;9.60;66.20
21502;DHT22;27639;48.674;9.242;2023-12-14T02:01:42;9.60;66.40
21502;DHT22;27639;48.674;9.242;2023-12-14T02:04:08;9.60;66.40
21502;DHT22;27639;48.674;9.242;2023-12-14T02:06:35;9.70;66.60
21502;DHT22;27639;48.674;9.242;2023-12-14T02:09:01;9.70;66.60
21502;DHT22;27639;48.674;9.242;2023-12-14T02:11:27;9.70;66.50
21502;DHT22;27639;48.674;9.242;2023-12-14T02:13:52;9.70;66.30
21502;DHT22;27639;48.674;9.242;2023-12-14T02:16:18;9.70;66.30
21502;DHT22;27639;48.674;9.242;2023-12-14T02:18:44;9.80;66.30
21502;DHT22;27639;48.674;9.242;2023-12-14T02:21:10;9.80;66.10
21502;DHT22;27639;48.674;9.242;2023-12-14T02:23:45;9.80;66.10
21502;DHT22;27639;48.674;9.242;2023-12-14T02:26:11;9.80;65.90
21502;DHT22;27639;48.674;9.242;2023-12-14T02:28:37;9.90;66.00
21502;DHT22;27639;48.674;9.242;2023-12-14T02:31:03;9.90;66.00
21502;DHT22;27639;48.674;9.242;2023-12-14T02:33:28;9.90;66.00
21502;DHT22;27639;48.674;9.242;2023-12-14T02:35:54;9.90;65.90
21502;DHT22;27639;48.674;9.242;2023-12-14T02:38:19;9.90;65.90
21502;DHT22;27639;48.674;9.242;2023-12-14T02:40:46;9.90;66.00
21502;DHT22;27639;48.674;9.242;2023-12-14T02:43:11;9.90;66.00
21502;DHT22;27639;48.674;9.242;2023-12-14T02:45:37;9.90;65.90
21502;DHT22;27639;48.674;9.242;2023-12-14T02:48:02;9.90;65.90
21502;DHT22;27639;48.674;9.242;2023-12-14T02:50:28;9.90;65.90
21502;DHT22;27639;48.674;9.242;2023-12-14T02:52:54;9.90;65.90
21502;DHT22;27639;48.674;9.242;2023-12-14T02:55:19;9.90;65.90
21502;DHT22;27639;48.674;9.242;2023-12-14T02:57:45;9.90;65.90
21502;DHT22;27639;48.674;9.242;2023-12-14T03:00:11;9.80;65.90
21502;DHT22;27639;48.674;9.242;2023-12-14T03:02:37;9.80;65.90
21502;DHT22;27639;48.674;9.242;2023-12-14T03:05:03;9.80;65.90
21502;DHT22;27639;48.674;9.242;2023-12-14T03:07:28;9.80;65.80
21502;DHT22;27639;48.674;9.242;2023-12-14T03:09:54;9.90;65.80
21502;DHT22;27639;48.674;9.242;2023-12-14T03:12:20;9.90;65.80
21502;DHT22;27639;48.674;9.242;2023-12-14T03:14:45;9.90;65.80
21502;DHT22;27639;48.674;9.242;2023-12-14T03:17:11;9.90;65.70
21502;DHT22;27639;48.674;9.242;2023-12-14T03:19:39;9.90;65.70
21502;DHT22;27639;48.674;9.242;2023-12-14T03:22:05;10.00;64.70
21502;DHT22;27639;48.674;9.242;2023-12-14T03:24:31;10.00;64.70
21502;DHT22;27639;48.674;9.242;2023-12-14T03:26:56;10.00;64.60
21502;DHT22;27639;48.674;9.242;2023-12-14T03:29:22;10.00;64.50
21502;DHT22;27639;48.674;9.242;2023-12-14T03:31:48;10.00;64.50
21502;DHT22;27639;48.674;9.242;2023-12-14T03:34:13;10.10;64.40
21502;DHT22;27639;48.674;9.242;2023-12-14T03:36:39;10.00;64.10
21502;DHT22;27639;48.674;9.242;2023-12-14T03:39:05;10.00;64.00
21502;DHT22;27639;48.674;9.242;2023-12-14T03:41:31;9.90;65.30
21502;DHT22;27639;48.674;9.242;2023-12-14T03:43:57;9.90;65.30
21502;DHT22;27639;48.674;9.242;2023-12-14T03:46:23;9.80;65.40
21502;DHT22;27639;48.674;9.242;2023-12-14T03:48:49;9.70;65.50
21502;DHT22;27639;48.674;9.242;2023-12-14T03:51:18;9.70;65.30
21502;DHT22;27639;48.674;9.242;2023-12-14T03:53:44;9.70;65.50
21502;DHT22;27639;48.674;9.242;2023-12-14T03:56:09;9.60;65.80
21502;DHT22;27639;48.674;9.242;2023-12-14T03:58:35;9.60;66.10
21502;DHT22;27639;48.674;9.242;2023-12-14T04:01:01;9.60;66.30
21502;DHT22;27639;48.674;9.242;2023-12-14T04:03:26;9.60;66.50
21502;DHT22;27639;48.674;9.242;2023-12-14T04:05:52;9.50;66.50
21502;DHT22;27639;48.674;9.242;2023-12-14T04:08:17;9.60;66.60
21502;DHT22;27639;48.674;9.242;2023-12-14T04:10:43;9.60;66.60
21502;DHT22;27639;48.674;9.242;2023-12-14T04:13:08;9.60;66.60
21502;DHT22;27639;48.674;9.242;2023-12-14T04:15:34;9.60;66.60
21502;DHT22;27639;48.674;9.242;2023-12-14T04:18:00;9.70;66.70
21502;DHT22;27639;48.674;9.242;2023-12-14T04:20:25;9.70;66.70
21502;DHT22;27639;48.674;9.242;2023-12-14T04:22:51;9.70;66.70
21502;DHT22;27639;48.674;9.242;2023-12-14T04:25:16;9.70;66.70
21502;DHT22;27639;48.674;9.242;2023-12-14T04:27:42;9.80;66.80
21502;DHT22;27639;48.674;9.242;2023-12-14T04:30:07;9.80;66.80
21502;DHT22;27639;48.674;9.242;2023-12-14T04:32:36;9.90;66.90
21502;DHT22;27639;48.674;9.242;2023-12-14T04:35:02;9.90;66.90
21502;DHT22;27639;48.674;9.242;2023-12-14T04:37:28;10.00;65.70
21502;DHT22;27639;48.674;9.242;2023-12-14T04:39:55;10.00;65.50
21502;DHT22;27639;48.674;9.242;2023-12-14T04:42:21;10.00;65.40
21502;DHT22;27639;48.674;9.242;2023-12-14T04:44:46;10.00;65.30
21502;DHT22;27639;48.674;9.242;2023-12-14T04:47:12;10.10;65.40
21502;DHT22;27639;48.674;9.242;2023-12-14T04:49:37;10.10;65.40
21502;DHT22;27639;48.674;9.242;2023-12-14T04:52:03;10.10;65.20
21502;DHT22;27639;48.674;9.242;2023-12-14T04:54:29;10.00;65.00
21502;DHT22;27639;48.674;9.242;2023-12-14T04:56:54;10.00;65.10
21502;DHT22;27639;48.674;9.242;2023-12-14T04:59:20;10.00;65.20
21502;DHT22;27639;48.674;9.242;2023-12-14T05:01:45;10.10;65.40
21502;DHT22;27639;48.674;9.242;2023-12-14T05:04:11;10.10;65.40
21502;DHT22;27639;48.674;9.242;2023-12-14T05:06:38;10.10;65.40
21502;DHT22;27639;48.674;9.242;2023-12-14T05:09:04;10.00;65.30
21502;DHT22;27639;48.674;9.242;2023-12-14T05:11:31;10.10;65.50
21502;DHT22;27639;48.674;9.242;2023-12-14T05:13:56;10.10;65.50
21502;DHT22;27639;48.674;9.242;2023-12-14T05:16:23;10.10;65.60
21502;DHT22;27639;48.674;9.242;2023-12-14T05:18:52;10.00;65.80
21502;DHT22;27639;48.674;9.242;2023-12-14T05:21:18;9.90;66.90
21502;DHT22;27639;48.674;9.242;2023-12-14T05:23:44;10.00;65.80
21502;DHT22;27639;48.674;9.242;2023-12-14T05:26:09;10.00;65.80
21502;DHT22;27639;48.674;9.242;2023-12-14T05:28:35;10.00;65.80
21502;DHT22;27639;48.674;9.242;2023-12-14T05:31:00;10.00;65.80
21502;DHT22;27639;48.674;9.242;2023-12-14T05:33:26;10.00;65.80
21502;DHT22;27639;48.674;9.242;2023-12-14T05:35:52;10.00;65.80
21502;DHT22;27639;48.674;9.242;2023-12-14T05:38:17;10.00;65.80
21502;DHT22;27639;48.674;9.242;2023-12-14T05:40:43;10.00;65.80
21502;DHT22;27639;48.674;9.242;2023-12-14T05:43:09;9.90;67.30
21502;DHT22;27639;48.674;9.242;2023-12-14T05:45:35;9.90;67.60
21502;DHT22;27639;48.674;9.242;2023-12-14T05:48:01;9.90;67.70
21502;DHT22;27639;48.674;9.242;2023-12-14T05:50:27;9.90;67.70
21502;DHT22;27639;48.674;9.242;2023-12-14T05:52:53;10.00;66.70
21502;DHT22;27639;48.674;9.242;2023-12-14T05:55:19;10.00;66.70
21502;DHT22;27639;48.674;9.242;2023-12-14T05:57:47;10.00;66.80
21502;DHT22;27639;48.674;9.242;2023-12-14T06:00:13;10.00;66.80
21502;DHT22;27639;48.674;9.242;2023-12-14T06:02:39;10.00;66.80
21502;DHT22;27639;48.674;9.242;2023-12-14T06:05:06;10.00;66.90
21502;DHT22;27639;48.674;9.242;2023-12-14T06:07:32;9.90;67.90
21502;DHT22;27639;48.674;9.242;2023-12-14T06:09:58;9.90;67.90
21502;DHT22;27639;48.674;9.242;2023-12-14T06:12:23;9.90;68.00
21502;DHT22;27639;48.674;9.242;2023-12-14T06:14:49;9.90;68.10
21502;DHT22;27639;48.674;9.242;2023-12-14T06:17:15;9.90;68.10
21502;DHT22;27639;48.674;9.242;2023-12-14T06:19:41;9.90;68.10
21502;DHT22;27639;48.674;9.242;2023-12-14T06:22:07;9.90;68.20
21502;DHT22;27639;48.674;9.242;2023-12-14T06:24:32;9.90;68.10
21502;DHT22;27639;48.674;9.242;2023-12-14T06:26:58;10.00;67.10
21502;DHT22;27639;48.674;9.242;2023-12-14T06:29:23;10.00;67.10
21502;DHT22;27639;48.674;9.242;2023-12-14T06:31:49;10.00;67.10
21502;DHT22;27639;48.674;9.242;2023-12-14T06:34:15;10.00;67.00
21502;DHT22;27639;48.674;9.242;2023-12-14T06:36:46;10.00;67.10
21502;DHT22;27639;48.674;9.242;2023-12-14T06:39:12;10.00;66.90
21502;DHT22;27639;48.674;9.242;2023-12-14T06:41:38;10.00;67.10
21502;DHT22;27639;48.674;9.242;2023-12-14T06:44:04;9.90;68.10
21502;DHT22;27639;48.674;9.242;2023-12-14T06:46:30;9.90;68.30
21502;DHT22;27639;48.674;9.242;2023-12-14T06:48:55;9.90;68.20
21502;DHT22;27639;48.674;9.242;2023-12-14T06:51:21;9.90;68.40
21502;DHT22;27639;48.674;9.242;2023-12-14T06:53:48;9.90;68.50
21502;DHT22;27639;48.674;9.242;2023-12-14T06:56:14;9.90;68.50
21502;DHT22;27639;48.674;9.242;2023-12-14T06:58:42;9.90;68.50
21502;DHT22;27639;48.674;9.242;2023-12-14T07:01:15;9.90;68.40
21502;DHT22;27639;48.674;9.242;2023-12-14T07:03:41;9.90;68.40
21502;DHT22;27639;48.674;9.242;2023-12-14T07:06:07;9.90;68.50
21502;DHT22;27639;48.674;9.242;2023-12-14T07:08:36;9.90;68.60
21502;DHT22;27639;48.674;9.242;2023-12-14T07:11:02;9.90;68.60
21502;DHT22;27639;48.674;9.242;2023-12-14T07:13:27;9.90;68.60
21502;DHT22;27639;48.674;9.242;2023-12-14T07:15:53;9.90;68.60
21502;DHT22;27639;48.674;9.242;2023-12-14T07:18:18;9.90;69.50
21502;DHT22;27639;48.674;9.242;2023-12-14T07:20:44;9.90;68.70
21502;DHT22;27639;48.674;9.242;2023-12-14T07:23:09;9.90;68.60
21502;DHT22;27639;48.674;9.242;2023-12-14T07:25:35;9.90;68.60
21502;DHT22;27639;48.674;9.242;2023-12-14T07:28:00;9.90;68.70
21502;DHT22;27639;48.674;9.242;2023-12-14T07:30:26;9.90;68.60
21502;DHT22;27639;48.674;9.242;2023-12-14T07:32:52;10.00;67.60
21502;DHT22;27639;48.674;9.242;2023-12-14T07:35:17;10.00;67.40
21502;DHT22;27639;48.674;9.242;2023-12-14T07:37:43;10.10;67.30
21502;DHT22;27639;48.674;9.242;2023-12-14T07:40:09;10.10;67.30
21502;DHT22;27639;48.674;9.242;2023-12-14T07:42:34;10.10;67.20
21502;DHT22;27639;48.674;9.242;2023-12-14T07:45:00;10.20;67.20
21502;DHT22;27639;48.674;9.242;2023-12-14T07:47:25;10.20;67.20
21502;DHT22;27639;48.674;9.242;2023-12-14T07:49:51;10.30;68.00
21502;DHT22;27639;48.674;9.242;2023-12-14T07:52:16;10.30;67.10
21502;DHT22;27639;48.674;9.242;2023-12-14T07:54:42;10.30;67.00
21502;DHT22;27639;48.674;9.242;2023-12-14T07:57:08;10.30;66.90
21502;DHT22;27639;48.674;9.242;2023-12-14T07:59:33;10.30;67.00
21502;DHT22;27639;48.674;9.242;2023-12-14T08:01:59;10.30;67.00
21502;DHT22;27639;48.674;9.242;2023-12-14T08:04:25;10.30;67.10
21502;DHT22;27639;48.674;9.242;2023-12-14T08:06:50;10.30;67.10
21502;DHT22;27639;48.674;9.242;2023-12-14T08:09:16;10.30;67.10
21502;DHT22;27639;48.674;9.242;2023-12-14T08:11:42;10.30;67.20
21502;DHT22;27639;48.674;9.242;2023-12-14T08:14:07;10.30;67.20
21502;DHT22;27639;48.674;9.242;2023-12-14T08:16:33;10.40;67.20
21502;DHT22;27639;48.674;9.242;2023-12-14T08:18:59;10.30;67.10
21502;DHT22;27639;48.674;9.242;2023-12-14T08:21:24;10.30;67.20
21502;DHT22;27639;48.674;9.242;2023-12-14T08:23:50;10.30;67.30
21502;DHT22;27639;48.674;9.242;2023-12-14T08:26:15;10.30;67.30
21502;DHT22;27639;48.674;9.242;2023-12-14T08:28:41;10.30;67.30
21502;DHT22;27639;48.674;9.242;2023-12-14T08:31:07;10.30;67.40
21502;DHT22;27639;48.674;9.242;2023-12-14T08:33:35;10.30;67.40
21502;DHT22;27639;48.674;9.242;2023-12-14T08:36:00;10.40;67.60
21502;DHT22;27639;48.674;9.242;2023-12-14T08:38:26;10.40;67.70
21502;DHT22;27639;48.674;9.242;2023-12-14T08:40:51;10.50;67.90
21502;DHT22;27639;48.674;9.242;2023-12-14T08:43:17;10.60;67.90
21502;DHT22;27639;48.674;9.242;2023-12-14T08:45:42;10.60;67.80
21502;DHT22;27639;48.674;9.242;2023-12-14T08:48:08;10.70;67.80
21502;DHT22;27639;48.674;9.242;2023-12-14T08:50:34;10.60;67.60
21502;DHT22;27639;48.674;9.242;2023-12-14T08:52:59;10.60;67.40
21502;DHT22;27639;48.674;9.242;2023-12-14T08:55:25;10.70;67.50
21502;DHT22;27639;48.674;9.242;2023-12-14T08:57:51;10.70;67.40
21502;DHT22;27639;48.674;9.242;2023-12-14T09:00:17;10.80;67.30
21502;DHT22;27639;48.674;9.242;2023-12-14T09:02:44;10.80;66.90
21502;DHT22;27639;48.674;9.242;2023-12-14T09:05:12;10.80;66.70
21502;DHT22;27639;48.674;9.242;2023-12-14T09:07:39;10.90;66.80
21502;DHT22;27639;48.674;9.242;2023-12-14T09:10:05;10.90;66.80
21502;DHT22;27639;48.674;9.242;2023-12-14T09:12:32;10.90;66.80
21502;DHT22;27639;48.674;9.242;2023-12-14T09:14:57;10.90;66.80
21502;DHT22;27639;48.674;9.242;2023-12-14T09:17:23;10.80;66.70
21502;DHT22;27639;48.674;9.242;2023-12-14T09:19:49;10.70;66.60
21502;DHT22;27639;48.674;9.242;2023-12-14T09:22:14;10.80;66.70
21502;DHT22;27639;48.674;9.242;2023-12-14T09:24:40;10.80;67.20
21502;DHT22;27639;48.674;9.242;2023-12-14T09:27:05;10.80;67.40
21502;DHT22;27639;48.674;9.242;2023-12-14T09:29:31;10.80;67.40
21502;DHT22;27639;48.674;9.242;2023-12-14T09:31:57;10.90;67.50
21502;DHT22;27639;48.674;9.242;2023-12-14T09:34:22;10.90;67.50
21502;DHT22;27639;48.674;9.242;2023-12-14T09:36:48;10.90;67.40
21502;DHT22;27639;48.674;9.242;2023-12-14T09:39:13;10.80;67.40
21502;DHT22;27639;48.674;9.242;2023-12-14T09:41:40;10.90;67.50
21502;DHT22;27639;48.674;9.242;2023-12-14T09:44:06;10.90;67.50
21502;DHT22;27639;48.674;9.242;2023-12-14T09:46:34;11.00;67.20
21502;DHT22;27639;48.674;9.242;2023-12-14T09:49:01;11.00;66.90
21502;DHT22;27639;48.674;9.242;2023-12-14T09:51:27;11.00;66.90
21502;DHT22;27639;48.674;9.242;2023-12-14T09:53:53;10.90;66.80
21502;DHT22;27639;48.674;9.242;2023-12-14T09:56:24;10.80;66.90
21502;DHT22;27639;48.674;9.242;2023-12-14T09:58:50;10.90;67.30
21502;DHT22;27639;48.674;9.242;2023-12-14T10:01:26;10.90;67.30
21502;DHT22;27639;48.674;9.242;2023-12-14T10:04:09;10.90;67.30
21502;DHT22;27639;48.674;9.242;2023-12-14T10:06:36;10.90;67.40
21502;DHT22;27639;48.674;9.242;2023-12-14T10:09:01;11.00;67.90
21502;DHT22;27639;48.674;9.242;2023-12-14T10:11:27;11.00;68.10
21502;DHT22;27639;48.674;9.242;2023-12-14T10:13:52;11.10;68.20
21502;DHT22;27639;48.674;9.242;2023-12-14T10:16:32;11.10;68.10
21502;DHT22;27639;48.674;9.242;2023-12-14T10:18:58;11.20;68.10
21502;DHT22;27639;48.674;9.242;2023-12-14T10:21:26;11.20;68.10
21502;DHT22;27639;48.674;9.242;2023-12-14T10:23:55;11.30;68.30
21502;DHT22;27639;48.674;9.242;2023-12-14T10:26:22;11.30;68.30
21502;DHT22;27639;48.674;9.242;2023-12-14T10:28:50;11.40;68.30
21502;DHT22;27639;48.674;9.242;2023-12-14T10:31:16;11.40;68.30
21502;DHT22;27639;48.674;9.242;2023-12-14T10:33:43;11.50;68.50
21502;DHT22;27639;48.674;9.242;2023-12-14T10:36:09;11.50;68.50
21502;DHT22;27639;48.674;9.242;2023-12-14T10:38:37;11.60;68.60
21502;DHT22;27639;48.674;9.242;2023-12-14T10:41:04;11.60;68.30
21502;DHT22;27639;48.674;9.242;2023-12-14T10:43:30;11.70;67.80
21502;DHT22;27639;48.674;9.242;2023-12-14T10:45:59;11.70;67.60
21502;DHT22;27639;48.674;9.242;2023-12-14T10:48:26;11.80;67.70
21502;DHT22;27639;48.674;9.242;2023-12-14T10:50:53;11.80;67.70
21502;DHT22;27639;48.674;9.242;2023-12-14T10:53:19;11.80;67.70
21502;DHT22;27639;48.674;9.242;2023-12-14T10:55:45;11.90;67.80
21502;DHT22;27639;48.674;9.242;2023-12-14T10:58:11;11.90;67.50
21502;DHT22;27639;48.674;9.242;2023-12-14T11:00:37;11.90;67.40
21502;DHT22;27639;48.674;9.242;2023-12-14T11:03:06;12.00;67.20
21502;DHT22;27639;48.674;9.242;2023-12-14T11:05:34;12.00;67.10
21502;DHT22;27639;48.674;9.242;2023-12-14T11:10:52;12.10;67.20
21502;DHT22;27639;48.674;9.242;2023-12-14T11:13:18;12.10;67.10
21502;DHT22;27639;48.674;9.242;2023-12-14T11:15:51;12.20;67.50
21502;DHT22;27639;48.674;9.242;2023-12-14T11:18:21;12.30;67.50
21502;DHT22;27639;48.674;9.242;2023-12-14T11:21:00;12.30;67.30
21502;DHT22;27639;48.674;9.242;2023-12-14T11:23:27;12.30;66.80
21502;DHT22;27639;48.674;9.242;2023-12-14T11:25:58;12.30;67.30
21502;DHT22;27639;48.674;9.242;2023-12-14T11:28:24;12.40;67.20
21502;DHT22;27639;48.674;9.242;2023-12-14T11:30:50;12.40;66.90
21502;DHT22;27639;48.674;9.242;2023-12-14T11:33:16;12.40;66.70
21502;DHT22;27639;48.674;9.242;2023-12-14T11:35:42;12.50;66.40
21502;DHT22;27639;48.674;9.242;2023-12-14T11:38:08;12.60;66.90
21502;DHT22;27639;48.674;9.242;2023-12-14T11:40:39;12.60;65.80
21502;DHT22;27639;48.674;9.242;2023-12-14T11:43:05;12.70;65.70
21502;DHT22;27639;48.674;9.242;2023-12-14T11:45:35;12.70;65.40
21502;DHT22;27639;48.674;9.242;2023-12-14T11:48:02;12.70;64.90
21502;DHT22;27639;48.674;9.242;2023-12-14T11:50:31;12.70;64.90
21502;DHT22;27639;48.674;9.242;2023-12-14T11:52:57;12.60;64.80
21502;DHT22;27639;48.674;9.242;2023-12-14T11:55:23;12.70;65.10
21502;DHT22;27639;48.674;9.242;2023-12-14T11:57:49;12.70;64.70
21502;DHT22;27639;48.674;9.242;2023-12-14T12:00:17;12.70;64.40
21502;DHT22;27639;48.674;9.242;2023-12-14T12:02:42;12.70;64.20
21502;DHT22;27639;48.674;9.242;2023-12-14T12:05:08;12.80;64.10
21502;DHT22;27639;48.674;9.242;2023-12-14T12:07:39;12.70;63.60
21502;DHT22;27639;48.674;9.242;2023-12-14T12:10:05;12.70;63.30
21502;DHT22;27639;48.674;9.242;2023-12-14T12:12:33;12.70;63.00
21502;DHT22;27639;48.674;9.242;2023-12-14T12:14:59;12.70;62.80
21502;DHT22;27639;48.674;9.242;2023-12-14T12:17:25;12.70;62.60
21502;DHT22;27639;48.674;9.242;2023-12-14T12:19:51;12.50;62.40
21502;DHT22;27639;48.674;9.242;2023-12-14T12:22:17;12.50;63.20
21502;DHT22;27639;48.674;9.242;2023-12-14T12:24:42;12.50;62.10
21502;DHT22;27639;48.674;9.242;2023-12-14T12:27:08;12.40;61.90
21502;DHT22;27639;48.674;9.242;2023-12-14T12:29:34;12.40;61.60
21502;DHT22;27639;48.674;9.242;2023-12-14T12:32:00;12.40;61.60
21502;DHT22;27639;48.674;9.242;2023-12-14T12:34:25;12.40;61.40
21502;DHT22;27639;48.674;9.242;2023-12-14T12:36:51;12.40;61.40
21502;DHT22;27639;48.674;9.242;2023-12-14T12:39:16;12.40;61.20
21502;DHT22;27639;48.674;9.242;2023-12-14T12:41:42;12.40;61.10
21502;DHT22;27639;48.674;9.242;2023-12-14T12:44:08;12.30;60.70
21502;DHT22;27639;48.674;9.242;2023-12-14T12:46:37;12.30;60.60
21502;DHT22;27639;48.674;9.242;2023-12-14T12:49:04;12.30;60.30
21502;DHT22;27639;48.674;9.242;2023-12-14T12:51:30;12.30;60.20
21502;DHT22;27639;48.674;9.242;2023-12-14T12:53:57;12.30;60.10
21502;DHT22;27639;48.674;9.242;2023-12-14T12:56:24;12.30;59.90
21502;DHT22;27639;48.674;9.242;2023-12-14T12:58:50;12.30;59.90
21502;DHT22;27639;48.674;9.242;2023-12-14T13:01:19;12.30;59.90
21502;DHT22;27639;48.674;9.242;2023-12-14T13:03:45;12.20;59.70
21502;DHT22;27639;48.674;9.242;2023-12-14T13:06:11;12.30;59.80
21502;DHT22;27639;48.674;9.242;2023-12-14T13:08:36;12.20;59.60
21502;DHT22;27639;48.674;9.242;2023-12-14T13:11:03;12.20;59.30
21502;DHT22;27639;48.674;9.242;2023-12-14T13:13:29;12.20;59.20
21502;DHT22;27639;48.674;9.242;2023-12-14T13:15:56;12.10;59.40
21502;DHT22;27639;48.674;9.242;2023-12-14T13:18:22;12.10;59.50
21502;DHT22;27639;48.674;9.242;2023-12-14T13:20:47;12.00;59.70
21502;DHT22;27639;48.674;9.242;2023-12-14T13:23:13;12.00;60.00
21502;DHT22;27639;48.674;9.242;2023-12-14T13:25:39;11.90;60.10
21502;DHT22;27639;48.674;9.242;2023-12-14T13:28:04;11.90;60.20
21502;DHT22;27639;48.674;9.242;2023-12-14T13:30:30;11.80;60.20
21502;DHT22;27639;48.674;9.242;2023-12-14T13:32:56;11.80;60.40
21502;DHT22;27639;48.674;9.242;2023-12-14T13:35:22;11.70;60.30
21502;DHT22;27639;48.674;9.242;2023-12-14T13:37:50;11.60;60.50
21502;DHT22;27639;48.674;9.242;2023-12-14T13:40:15;11.50;60.80
21502;DHT22;27639;48.674;9.242;2023-12-14T13:42:42;11.40;60.90
21502;DHT22;27639;48.674;9.242;2023-12-14T13:45:08;11.40;61.20
21502;DHT22;27639;48.674;9.242;2023-12-14T13:47:34;11.30;61.10
21502;DHT22;27639;48.674;9.242;2023-12-14T13:49:59;11.40;61.50
21502;DHT22;27639;48.674;9.242;2023-12-14T13:52:25;11.40;61.60
21502;DHT22;27639;48.674;9.242;2023-12-14T13:54:50;11.40;61.70
21502;DHT22;27639;48.674;9.242;2023-12-14T13:57:17;11.40;61.90
21502;DHT22;27639;48.674;9.242;2023-12-14T13:59:42;11.40;61.90
21502;DHT22;27639;48.674;9.242;2023-12-14T14:02:08;11.40;61.90
21502;DHT22;27639;48.674;9.242;2023-12-14T14:04:33;11.40;61.90
21502;DHT22;27639;48.674;9.242;2023-12-14T14:06:59;11.40;61.90
21502;DHT22;27639;48.674;9.242;2023-12-14T14:09:24;11.50;61.90
21502;DHT22;27639;48.674;9.242;2023-12-14T14:11:51;11.50;62.00
21502;DHT22;27639;48.674;9.242;2023-12-14T14:14:16;11.50;62.00
21502;DHT22;27639;48.674;9.242;2023-12-14T14:16:42;11.50;62.00
21502;DHT22;27639;48.674;9.242;2023-12-14T14:19:07;11.50;62.00
21502;DHT22;27639;48.674;9.242;2023-12-14T14:21:33;11.50;62.20
21502;DHT22;27639;48.674;9.242;2023-12-14T14:23:58;11.50;62.40
21502;DHT22;27639;48.674;9.242;2023-12-14T14:26:24;11.50;62.40
21502;DHT22;27639;48.674;9.242;2023-12-14T14:28:50;11.50;62.60
21502;DHT22;27639;48.674;9.242;2023-12-14T14:31:15;11.50;62.80
21502;DHT22;27639;48.674;9.242;2023-12-14T14:33:41;11.50;62.80
21502;DHT22;27639;48.674;9.242;2023-12-14T14:36:07;11.50;62.90
21502;DHT22;27639;48.674;9.242;2023-12-14T14:38:33;11.50;62.90
21502;DHT22;27639;48.674;9.242;2023-12-14T14:40:59;11.40;62.80
21502;DHT22;27639;48.674;9.242;2023-12-14T14:43:25;11.40;62.90
21502;DHT22;27639;48.674;9.242;2023-12-14T14:45:50;11.40;63.00
21502;DHT22;27639;48.674;9.242;2023-12-14T14:48:16;11.30;63.00
21502;DHT22;27639;48.674;9.242;2023-12-14T14:50:42;11.30;63.20
21502;DHT22;27639;48.674;9.242;2023-12-14T14:53:08;11.30;63.20
21502;DHT22;27639;48.674;9.242;2023-12-14T14:55:33;11.30;63.40
21502;DHT22;27639;48.674;9.242;2023-12-14T14:58:00;11.20;63.40
21502;DHT22;27639;48.674;9.242;2023-12-14T15:00:25;11.20;63.60
21502;DHT22;27639;48.674;9.242;2023-12-14T15:02:52;11.20;63.70
21502;DHT22;27639;48.674;9.242;2023-12-14T15:05:17;11.10;63.70
21502;DHT22;27639;48.674;9.242;2023-12-14T15:07:43;11.10;63.90
21502;DHT22;27639;48.674;9.242;2023-12-14T15:10:09;11.10;63.90
21502;DHT22;27639;48.674;9.242;2023-12-14T15:12:34;11.10;63.90
21502;DHT22;27639;48.674;9.242;2023-12-14T15:15:00;11.10;63.90
21502;DHT22;27639;48.674;9.242;2023-12-14T15:17:25;11.10;63.90
21502;DHT22;27639;48.674;9.242;2023-12-14T15:19:51;11.10;63.90
21502;DHT22;27639;48.674;9.242;2023-12-14T15:22:17;11.10;64.10
21502;DHT22;27639;48.674;9.242;2023-12-14T15:24:42;11.00;64.00
21502;DHT22;27639;48.674;9.242;2023-12-14T15:27:08;11.00;64.10
21502;DHT22;27639;48.674;9.242;2023-12-14T15:29:34;11.00;64.20
21502;DHT22;27639;48.674;9.242;2023-12-14T15:31:59;11.00;64.30